Time;durP1;ratioP1;P1;durP2;ratioP2;P2;SDS_P1;SDS_P2;PMS_P1;PMS_P2;Temp;Humidity;BMP_temperature;BMP_pressure;BME280_temperature;BME280_humidity;BME280_pressure;Samples;Min_cycle;Max_cycle;Signal;HPM_P1;HPM_P2
2020/12/28 00:02:21;;;;;;;8.48;5.72;;;;;;;1.36;100.00;98014.94;5050167;28;20432;-72
2020/12/28 00:04:47;;;;;;;9.40;5.82;;;;;;;1.37;100.00;98016.66;5050215;28;20501;-72
2020/12/28 00:07:14;;;;;;;9.15;6.07;;;;;;;1.37;100.00;98005.94;5049819;28;20780;-72
2020/12/28 00:09:40;;;;;;;12.35;6.60;;;;;;;1.34;100.00;97998.22;5050062;28;20493;-72
2020/12/28 00:12:07;;;;;;;9.85;5.95;;;;;;;1.33;100.00;97996.50;5049983;28;20470;-71
2020/12/28 00:14:33;;;;;;;8.27;6.00;;;;;;;1.33;100.00;98002.69;5050078;28;20903;-72
2020/12/28 00:16:59;;;;;;;13.23;6.30;;;;;;;1.32;100.00;97993.00;5049868;28;20413;-72
2020/12/28 00:19:25;;;;;;;9.23;5.43;;;;;;;1.34;100.00;97987.53;5049526;28;20451;-72
2020/12/28 00:21:51;;;;;;;10.50;6.47;;;;;;;1.34;100.00;97984.84;5049805;28;20782;-72
2020/12/28 00:24:18;;;;;;;8.65;6.35;;;;;;;1.33;100.00;97983.97;5049879;28;20413;-72
2020/12/28 00:26:45;;;;;;;10.93;6.30;;;;;;;1.35;100.00;97981.19;5049653;28;20421;-72
2020/12/28 00:29:14;;;;;;;11.95;6.10;;;;;;;1.36;100.00;97979.34;5049669;28;20524;-72
2020/12/28 00:31:40;;;;;;;8.82;6.15;;;;;;;1.37;100.00;97989.09;5048523;28;20421;-72
2020/12/28 00:34:06;;;;;;;11.65;6.50;;;;;;;1.38;100.00;97977.38;5050370;28;20978;-72
2020/12/28 00:36:32;;;;;;;11.38;6.57;;;;;;;1.39;100.00;97976.41;5049340;28;20417;-72
2020/12/28 00:38:58;;;;;;;10.90;6.57;;;;;;;1.39;100.00;97977.28;5049614;28;20472;-72
2020/12/28 00:41:24;;;;;;;10.23;6.53;;;;;;;1.40;100.00;97962.06;5049691;28;20417;-72
2020/12/28 00:43:50;;;;;;;10.23;7.00;;;;;;;1.39;100.00;97968.38;5049684;28;20443;-72
2020/12/28 00:46:17;;;;;;;10.30;6.80;;;;;;;1.37;100.00;97973.88;5049207;28;20749;-72
2020/12/28 00:48:43;;;;;;;10.80;6.83;;;;;;;1.37;100.00;97965.03;5049459;28;20456;-72
2020/12/28 00:51:12;;;;;;;10.95;6.65;;;;;;;1.36;100.00;97961.47;5049568;28;20413;-73
2020/12/28 00:53:38;;;;;;;10.57;6.72;;;;;;;1.33;100.00;97953.75;5049611;28;20417;-72
2020/12/28 00:56:06;;;;;;;10.70;6.90;;;;;;;1.31;100.00;97953.88;5031130;28;20425;-72
2020/12/28 00:58:35;;;;;;;10.98;7.20;;;;;;;1.26;100.00;97950.75;5050626;28;20775;-72
2020/12/28 01:01:03;;;;;;;9.70;6.70;;;;;;;1.25;100.00;97948.22;5053618;28;20425;-72
2020/12/28 01:03:30;;;;;;;12.48;7.50;;;;;;;1.24;100.00;97951.88;5053395;28;20440;-72
2020/12/28 01:06:25;;;;;;;13.35;7.57;;;;;;;1.21;100.00;97962.84;5043840;28;20528;-72
2020/12/28 01:09:14;;;;;;;10.60;7.50;;;;;;;1.23;100.00;97963.53;5053250;28;20503;-73
2020/12/28 01:11:41;;;;;;;10.05;6.88;;;;;;;1.22;100.00;97956.53;5048872;28;20428;-72
2020/12/28 01:14:08;;;;;;;12.23;7.90;;;;;;;1.22;100.00;97948.50;5051948;28;20940;-72
2020/12/28 01:16:34;;;;;;;11.85;7.35;;;;;;;1.22;100.00;97952.00;5051736;28;20417;-72
2020/12/28 01:19:02;;;;;;;12.77;7.57;;;;;;;1.22;100.00;97946.66;5053027;28;20578;-72
2020/12/28 01:21:31;;;;;;;10.88;7.43;;;;;;;1.20;100.00;97947.78;5051940;28;20504;-72
2020/12/28 01:23:58;;;;;;;13.85;7.97;;;;;;;1.20;100.00;97932.56;5052124;28;20428;-72
2020/12/28 01:26:25;;;;;;;12.25;7.68;;;;;;;1.20;100.00;97913.03;5051709;28;20425;-72
2020/12/28 01:28:54;;;;;;;11.85;7.55;;;;;;;1.23;100.00;97918.09;5051771;28;20429;-72
2020/12/28 01:31:24;;;;;;;14.57;8.55;;;;;;;1.22;100.00;97905.75;5051670;28;20420;-72
2020/12/28 01:34:17;;;;;;;12.88;8.38;;;;;;;1.21;100.00;97898.69;5050687;28;20915;-72
2020/12/28 01:36:54;;;;;;;12.20;7.95;;;;;;;1.24;100.00;97898.41;5051484;28;20461;-72
2020/12/28 01:39:24;;;;;;;11.93;7.83;;;;;;;1.23;100.00;97884.22;5051668;28;20470;-72
2020/12/28 01:41:54;;;;;;;10.10;7.18;;;;;;;1.27;100.00;97876.75;5051624;28;20413;-72
2020/12/28 01:44:20;;;;;;;12.10;7.40;;;;;;;1.24;100.00;97875.19;5051551;28;20534;-72
2020/12/28 01:46:52;;;;;;;12.10;7.73;;;;;;;1.25;100.00;97876.91;5051479;28;20952;-72
2020/12/28 01:49:20;;;;;;;13.75;7.50;;;;;;;1.23;100.00;97868.19;5051373;28;20429;-72
2020/12/28 01:51:47;;;;;;;12.20;7.70;;;;;;;1.21;100.00;97869.31;5052347;28;20810;-72
2020/12/28 01:54:15;;;;;;;12.45;7.55;;;;;;;1.23;100.00;97870.00;5051307;28;20422;-72
2020/12/28 01:56:47;;;;;;;10.75;7.40;;;;;;;1.22;100.00;97871.00;5051121;28;20504;-72
2020/12/28 01:59:15;;;;;;;13.70;7.60;;;;;;;1.27;100.00;97876.75;5051186;28;20475;-72
2020/12/28 02:01:47;;;;;;;11.32;7.60;;;;;;;1.31;100.00;97883.53;5051215;28;20409;-72
2020/12/28 02:04:18;;;;;;;13.40;8.10;;;;;;;1.29;100.00;97882.81;5051239;28;20525;-72
2020/12/28 02:06:53;;;;;;;11.85;7.75;;;;;;;1.28;100.00;97882.00;5052092;28;20421;-71
2020/12/28 02:09:20;;;;;;;12.80;7.22;;;;;;;1.30;100.00;97882.69;5050751;28;20444;-73
2020/12/28 02:11:46;;;;;;;11.07;7.72;;;;;;;1.28;100.00;97882.00;5052322;28;20462;-72
2020/12/28 02:14:13;;;;;;;14.37;7.80;;;;;;;1.29;100.00;97885.50;5051130;28;20445;-72
2020/12/28 02:16:59;;;;;;;12.20;7.72;;;;;;;1.26;100.00;97885.78;5030581;28;20433;-72
2020/12/28 02:19:29;;;;;;;12.35;7.97;;;;;;;1.23;100.00;97884.22;5050767;28;20436;-73
2020/12/28 02:22:01;;;;;;;11.13;7.83;;;;;;;1.22;100.00;97889.72;5050887;28;20803;-72
2020/12/28 02:24:36;;;;;;;11.65;7.82;;;;;;;1.23;100.00;97883.34;5050363;28;20818;-72
2020/12/28 02:27:02;;;;;;;12.02;8.10;;;;;;;1.22;100.00;97889.72;5050433;28;20478;-72
2020/12/28 02:29:29;;;;;;;11.63;7.47;;;;;;;1.17;100.00;97872.22;5051792;28;20516;-72
2020/12/28 02:31:55;;;;;;;10.63;7.72;;;;;;;1.14;100.00;97880.53;5051948;28;20895;-72
2020/12/28 02:34:42;;;;;;;12.15;7.90;;;;;;;1.08;100.00;97889.09;5050791;28;20914;-73
2020/12/28 02:37:17;;;;;;;12.45;7.70;;;;;;;1.10;100.00;97894.28;5051472;28;20517;-72
2020/12/28 02:39:53;;;;;;;10.93;7.45;;;;;;;1.08;100.00;97898.91;5050335;28;20903;-72
2020/12/28 02:42:19;;;;;;;12.07;7.75;;;;;;;1.07;100.00;97900.75;5051405;28;20544;-72
2020/12/28 02:45:04;;;;;;;10.70;7.82;;;;;;;1.00;100.00;97903.09;5051544;28;20504;-72
2020/12/28 02:47:48;;;;;;;12.35;8.40;;;;;;;0.93;100.00;97901.09;5051473;28;20467;-72
2020/12/28 02:50:33;;;;;;;13.43;8.57;;;;;;;0.85;100.00;97896.41;5051483;28;20421;-72
2020/12/28 02:53:18;;;;;;;16.63;8.63;;;;;;;0.79;100.00;97895.13;5051450;28;20406;-72
2020/12/28 02:56:03;;;;;;;15.40;8.32;;;;;;;0.75;100.00;97899.03;5051227;28;20436;-72
2020/12/28 02:58:47;;;;;;;17.02;8.88;;;;;;;0.70;100.00;97895.91;5052085;28;20447;-72
2020/12/28 03:01:31;;;;;;;12.55;8.63;;;;;;;0.68;100.00;97897.00;5053019;28;20486;-72
2020/12/28 03:04:15;;;;;;;12.20;8.65;;;;;;;0.62;100.00;97888.53;5052292;28;20938;-72
2020/12/28 03:07:00;;;;;;;13.60;8.40;;;;;;;0.58;100.00;97884.44;5051815;28;20890;-72
2020/12/28 03:09:45;;;;;;;12.18;8.13;;;;;;;0.52;100.00;97887.63;5051253;28;20447;-72
2020/12/28 03:12:29;;;;;;;12.98;8.77;;;;;;;0.43;100.00;97886.59;5051205;28;20413;-72
2020/12/28 03:15:13;;;;;;;12.48;8.48;;;;;;;0.37;100.00;97899.63;5050932;28;20439;-72
2020/12/28 03:17:58;;;;;;;12.90;9.18;;;;;;;0.33;100.00;97899.03;5047747;28;20461;-72
2020/12/28 03:20:42;;;;;;;14.67;9.13;;;;;;;0.34;100.00;97903.41;5050636;28;20986;-72
2020/12/28 03:23:26;;;;;;;14.45;9.43;;;;;;;0.32;100.00;97882.19;5050818;28;20597;-72
2020/12/28 03:26:13;;;;;;;12.45;9.02;;;;;;;0.33;100.00;97881.22;5029277;28;20432;-72
2020/12/28 03:28:57;;;;;;;13.80;9.30;;;;;;;0.36;100.00;97876.56;5051310;28;20412;-72
2020/12/28 03:31:59;;;;;;;14.75;9.10;;;;;;;0.38;100.00;97878.13;4969946;28;20477;-72
2020/12/28 03:34:44;;;;;;;15.20;9.45;;;;;;;0.41;100.00;97877.88;5043996;28;20465;-72
2020/12/28 03:37:28;;;;;;;14.55;9.05;;;;;;;0.44;100.00;97880.28;5050458;28;20459;-72
2020/12/28 03:40:12;;;;;;;15.38;9.57;;;;;;;0.46;100.00;97881.00;5050528;28;20484;-72
2020/12/28 03:42:57;;;;;;;13.18;9.32;;;;;;;0.47;100.00;97882.69;5049115;28;20583;-72
2020/12/28 03:45:42;;;;;;;15.85;9.93;;;;;;;0.50;100.00;97879.75;5050273;28;20825;-72
2020/12/28 03:48:43;;;;;;;14.20;9.43;;;;;;;0.52;100.00;97878.78;5008422;28;20432;-72
2020/12/28 03:51:27;;;;;;;15.13;9.57;;;;;;;0.53;100.00;97878.66;5046856;28;20769;-72
2020/12/28 03:54:12;;;;;;;12.73;9.02;;;;;;;0.56;100.00;97880.22;5049944;28;20770;-72
2020/12/28 03:56:56;;;;;;;14.70;9.60;;;;;;;0.55;100.00;97874.03;5048786;28;20527;-72
2020/12/28 03:59:46;;;;;;;15.68;9.35;;;;;;;0.57;100.00;97872.06;5030662;28;20517;-72
2020/12/28 04:02:31;;;;;;;14.45;9.15;;;;;;;0.59;100.00;97869.25;5050145;28;20828;-72
2020/12/28 04:05:20;;;;;;;13.85;9.77;;;;;;;0.58;100.00;97864.94;5044358;28;20440;-72
2020/12/28 04:08:18;;;;;;;16.73;9.60;;;;;;;0.58;100.00;97864.94;5050154;28;20453;-72
2020/12/28 04:11:06;;;;;;;14.90;9.50;;;;;;;0.58;100.00;97864.94;5049749;28;20439;-72
2020/12/28 04:13:50;;;;;;;19.67;9.50;;;;;;;0.58;100.00;97862.25;5048955;28;20520;-72
2020/12/28 04:16:35;;;;;;;14.65;9.57;;;;;;;0.58;100.00;97855.09;5050123;28;20489;-73
2020/12/28 04:19:01;;;;;;;16.23;9.77;;;;;;;0.56;100.00;97848.19;5049866;28;20456;-72
2020/12/28 04:21:27;;;;;;;15.95;10.05;;;;;;;0.56;100.00;97845.50;5049854;28;20421;-72
2020/12/28 04:23:53;;;;;;;14.35;9.60;;;;;;;0.52;100.00;97815.56;5049940;28;20432;-72
2020/12/28 04:26:19;;;;;;;14.50;9.57;;;;;;;0.47;100.00;97815.97;5049610;28;20409;-72
2020/12/28 04:28:46;;;;;;;13.77;9.77;;;;;;;0.45;100.00;97828.59;5049378;28;20432;-72
2020/12/28 04:31:12;;;;;;;14.45;9.50;;;;;;;0.44;100.00;97821.56;5049813;28;20501;-72
2020/12/28 04:33:39;;;;;;;15.10;10.40;;;;;;;0.43;100.00;97822.53;5049165;28;20834;-72
2020/12/28 04:36:05;;;;;;;15.98;10.10;;;;;;;0.43;100.00;97830.56;5049469;28;20503;-72
2020/12/28 04:38:31;;;;;;;15.23;10.15;;;;;;;0.41;100.00;97827.16;5049691;28;20508;-72
2020/12/28 04:40:58;;;;;;;15.65;10.32;;;;;;;0.42;100.00;97820.00;5049747;28;20475;-73
2020/12/28 04:43:26;;;;;;;15.48;10.25;;;;;;;0.41;100.00;97810.31;5049570;28;20472;-72
2020/12/28 04:45:57;;;;;;;15.93;10.45;;;;;;;0.41;100.00;97807.63;5049096;28;20550;-72
2020/12/28 04:48:23;;;;;;;14.90;10.52;;;;;;;0.43;100.00;97808.38;5049466;28;20834;-72
2020/12/28 04:50:50;;;;;;;14.43;9.98;;;;;;;0.41;100.00;97816.47;5049720;28;20424;-72
2020/12/28 04:53:17;;;;;;;13.60;9.53;;;;;;;0.40;100.00;97814.81;5049628;28;20569;-72
2020/12/28 04:55:43;;;;;;;13.67;9.97;;;;;;;0.39;100.00;97804.25;5049403;28;20535;-72
2020/12/28 04:58:08;;;;;;;13.85;9.48;;;;;;;0.40;100.00;97798.81;5048344;28;20918;-72
2020/12/28 05:00:34;;;;;;;15.77;9.48;;;;;;;0.39;100.00;97797.09;5049573;28;20420;-72
2020/12/28 05:03:00;;;;;;;15.43;10.30;;;;;;;0.41;100.00;97804.97;5049149;28;20972;-72
2020/12/28 05:05:26;;;;;;;15.45;10.00;;;;;;;0.41;100.00;97799.63;5049269;28;20420;-72
2020/12/28 05:07:53;;;;;;;14.57;9.75;;;;;;;0.41;100.00;97804.97;5049260;28;20417;-72
2020/12/28 05:10:23;;;;;;;15.43;9.90;;;;;;;0.44;100.00;97786.00;5049377;28;20562;-72
2020/12/28 05:12:50;;;;;;;14.98;10.50;;;;;;;0.44;100.00;97783.34;5049268;28;20497;-72
2020/12/28 05:15:16;;;;;;;13.63;9.63;;;;;;;0.44;100.00;97786.88;5049387;28;20508;-72
2020/12/28 05:17:42;;;;;;;14.30;9.63;;;;;;;0.45;100.00;97782.38;5049367;28;20504;-72
2020/12/28 05:20:07;;;;;;;12.40;9.20;;;;;;;0.45;100.00;97783.22;5045850;28;20803;-72
2020/12/28 05:22:33;;;;;;;13.15;9.25;;;;;;;0.48;100.00;97785.63;5049074;28;20428;-72
2020/12/28 05:25:00;;;;;;;12.37;9.17;;;;;;;0.50;100.00;97789.00;5049172;28;20906;-72
2020/12/28 05:27:26;;;;;;;19.50;10.18;;;;;;;0.55;100.00;97782.41;5048925;28;20512;-72
2020/12/28 05:29:52;;;;;;;20.20;10.13;;;;;;;0.56;100.00;97778.78;5049216;28;20409;-72
2020/12/28 05:32:18;;;;;;;14.43;9.73;;;;;;;0.57;100.00;97783.97;5049095;28;20895;-72
2020/12/28 05:34:45;;;;;;;12.77;8.88;;;;;;;0.62;100.00;97783.59;5042267;28;20501;-72
2020/12/28 05:37:12;;;;;;;13.82;9.38;;;;;;;0.64;100.00;97778.94;5043966;28;20516;-72
2020/12/28 05:39:40;;;;;;;14.07;9.95;;;;;;;0.64;100.00;97779.81;5048523;28;20508;-73
2020/12/28 05:42:08;;;;;;;12.23;9.00;;;;;;;0.66;100.00;97771.66;5049142;28;20417;-72
2020/12/28 05:44:34;;;;;;;12.75;8.70;;;;;;;0.68;100.00;97775.03;5050925;28;20843;-73
2020/12/28 05:47:02;;;;;;;11.73;8.97;;;;;;;0.70;100.00;97767.75;5052501;28;20544;-72
2020/12/28 05:49:32;;;;;;;15.10;10.18;;;;;;;0.71;100.00;97764.09;5052278;28;20466;-73
2020/12/28 05:52:00;;;;;;;14.20;10.17;;;;;;;0.71;100.00;97763.22;5052802;28;20931;-72
2020/12/28 05:54:28;;;;;;;18.10;10.77;;;;;;;0.72;100.00;97765.78;5052496;28;20421;-72
2020/12/28 05:56:55;;;;;;;15.43;10.13;;;;;;;0.74;100.00;97766.50;5051778;28;20887;-72
2020/12/28 05:59:22;;;;;;;12.98;9.82;;;;;;;0.79;100.00;97758.91;5052003;28;20425;-72
2020/12/28 06:01:49;;;;;;;13.45;9.52;;;;;;;0.82;100.00;97755.13;5052440;28;20420;-73
2020/12/28 06:04:17;;;;;;;12.77;9.18;;;;;;;0.83;100.00;97762.16;5051992;28;20524;-73
2020/12/28 06:06:44;;;;;;;13.30;9.45;;;;;;;0.84;100.00;97753.16;5051972;28;20525;-73
2020/12/28 06:09:14;;;;;;;12.18;9.15;;;;;;;0.87;100.00;97746.69;5051888;28;20516;-73
2020/12/28 06:11:40;;;;;;;13.50;9.48;;;;;;;0.91;100.00;97751.66;5052167;28;20548;-73
2020/12/28 06:14:13;;;;;;;11.80;9.65;;;;;;;0.90;100.00;97751.78;5051820;28;20417;-72
2020/12/28 06:16:40;;;;;;;14.82;9.68;;;;;;;0.92;100.00;97753.34;5052010;28;20452;-73
2020/12/28 06:19:06;;;;;;;13.15;9.65;;;;;;;0.94;100.00;97750.53;5051678;28;20445;-73
2020/12/28 06:21:36;;;;;;;13.17;9.37;;;;;;;0.94;100.00;97751.38;5051810;28;20957;-73
2020/12/28 06:24:02;;;;;;;13.50;9.55;;;;;;;0.92;100.00;97747.13;5050300;28;20472;-72
2020/12/28 06:26:28;;;;;;;14.48;9.55;;;;;;;0.90;100.00;97755.28;5039886;28;20990;-72
2020/12/28 06:29:03;;;;;;;12.40;9.70;;;;;;;0.92;100.00;97755.16;5051715;28;20421;-71
2020/12/28 06:31:29;;;;;;;13.73;10.00;;;;;;;0.95;100.00;97758.41;5051912;28;20865;-71
2020/12/28 06:33:56;;;;;;;13.38;9.55;;;;;;;0.98;100.00;97763.47;5051494;28;20500;-73
2020/12/28 06:36:22;;;;;;;13.88;9.55;;;;;;;0.98;100.00;97755.44;5051197;28;20977;-71
2020/12/28 06:38:55;;;;;;;13.20;9.20;;;;;;;1.00;100.00;97755.31;5052524;28;20423;-71
2020/12/28 06:41:26;;;;;;;11.85;9.30;;;;;;;1.03;100.00;97747.03;5039138;28;20482;-71
2020/12/28 06:43:53;;;;;;;11.88;9.20;;;;;;;1.02;100.00;97745.34;5027070;28;20833;-71
2020/12/28 06:46:23;;;;;;;12.73;8.88;;;;;;;1.04;100.00;97748.72;5037302;28;20504;-71
2020/12/28 06:48:49;;;;;;;11.80;9.23;;;;;;;1.05;100.00;97736.22;5051000;28;20500;-73
2020/12/28 06:51:16;;;;;;;12.90;9.57;;;;;;;1.06;100.00;97728.06;5050658;28;20763;-73
2020/12/28 06:53:42;;;;;;;12.95;9.20;;;;;;;1.08;100.00;97728.78;5051181;28;20417;-73
2020/12/28 06:56:09;;;;;;;13.43;9.50;;;;;;;1.05;100.00;97728.19;5050090;28;20524;-71
2020/12/28 06:58:36;;;;;;;12.98;9.40;;;;;;;1.03;100.00;97741.69;5051312;28;20414;-71
2020/12/28 07:01:03;;;;;;;11.97;9.30;;;;;;;1.03;100.00;97746.19;5050993;28;20543;-71
2020/12/28 07:03:29;;;;;;;13.70;9.20;;;;;;;1.02;100.00;97737.34;5051175;28;20425;-71
2020/12/28 07:05:59;;;;;;;12.27;9.55;;;;;;;1.07;100.00;97735.09;5049747;28;20501;-72
2020/12/28 07:08:27;;;;;;;13.25;9.95;;;;;;;1.11;100.00;97723.16;5050669;28;20481;-71
2020/12/28 07:10:57;;;;;;;13.77;9.50;;;;;;;1.16;100.00;97722.72;5044319;28;20465;-71
2020/12/28 07:13:23;;;;;;;14.30;9.13;;;;;;;1.15;100.00;97719.22;5037932;28;20503;-71
2020/12/28 07:15:49;;;;;;;13.20;9.48;;;;;;;1.14;100.00;97706.84;5046490;28;20428;-72
2020/12/28 07:18:15;;;;;;;11.70;9.23;;;;;;;1.15;100.00;97702.34;5049452;28;20475;-71
2020/12/28 07:20:41;;;;;;;12.15;9.00;;;;;;;1.10;100.00;97694.75;5047634;28;20893;-71
2020/12/28 07:23:06;;;;;;;13.80;9.00;;;;;;;1.10;100.00;97694.75;5045786;28;20425;-71
2020/12/28 07:25:33;;;;;;;11.83;9.00;;;;;;;1.11;100.00;97696.44;5030503;28;21011;-71
2020/12/28 07:27:59;;;;;;;12.40;9.03;;;;;;;1.13;100.00;97704.31;5046063;28;20930;-73
2020/12/28 07:30:25;;;;;;;12.10;9.25;;;;;;;1.15;100.00;97702.34;5030800;28;20430;-73
2020/12/28 07:32:56;;;;;;;12.88;8.70;;;;;;;1.20;100.00;97713.44;5037159;28;20460;-71
2020/12/28 07:35:22;;;;;;;12.15;8.95;;;;;;;1.25;100.00;97721.88;5047723;28;20511;-73
2020/12/28 07:37:49;;;;;;;12.93;9.17;;;;;;;1.30;100.00;97725.00;5037979;28;20559;-73
2020/12/28 07:40:15;;;;;;;12.02;8.38;;;;;;;1.34;100.00;97725.56;5046377;28;20990;-73
2020/12/28 07:42:42;;;;;;;11.48;8.98;;;;;;;1.41;100.00;97736.53;5042143;28;20415;-74
2020/12/28 07:45:11;;;;;;;15.25;9.95;;;;;;;1.47;100.00;97733.28;5039699;28;20975;-74
2020/12/28 07:47:40;;;;;;;12.70;8.90;;;;;;;1.53;100.00;97726.56;5044368;28;20508;-73
2020/12/28 07:50:08;;;;;;;12.73;9.40;;;;;;;1.57;100.00;97725.28;5042433;28;20464;-74
2020/12/28 07:52:40;;;;;;;13.07;8.93;;;;;;;1.61;100.00;97724.03;5045255;28;20421;-74
2020/12/28 07:55:14;;;;;;;12.53;9.27;;;;;;;1.63;100.00;97730.06;5039145;28;20508;-74
2020/12/28 07:57:54;;;;;;;11.75;8.55;;;;;;;1.65;100.00;97730.78;5040318;28;20442;-74
2020/12/28 08:00:25;;;;;;;12.45;8.75;;;;;;;1.65;100.00;97730.78;5029723;28;20431;-73
2020/12/28 08:03:05;;;;;;;13.18;8.95;;;;;;;1.66;100.00;97737.81;5037775;28;20517;-73
2020/12/28 08:05:33;;;;;;;11.88;8.73;;;;;;;1.65;100.00;97734.28;5029890;28;20425;-73
2020/12/28 08:07:59;;;;;;;12.25;8.48;;;;;;;1.67;100.00;97728.78;5037714;28;20916;-73
2020/12/28 08:10:25;;;;;;;11.15;8.63;;;;;;;1.67;100.00;97734.13;5042551;28;20432;-73
2020/12/28 08:12:58;;;;;;;15.70;8.85;;;;;;;1.65;100.00;97736.13;5029354;28;20425;-73
2020/12/28 08:15:29;;;;;;;11.75;9.02;;;;;;;1.61;100.00;97743.56;5044965;28;20524;-72
2020/12/28 08:18:09;;;;;;;14.07;8.95;;;;;;;1.59;100.00;97742.88;5049431;28;20542;-73
2020/12/28 08:20:35;;;;;;;11.95;8.52;;;;;;;1.58;100.00;97740.38;5048869;28;20847;-73
2020/12/28 08:23:01;;;;;;;11.73;8.82;;;;;;;1.55;100.00;97756.66;5049525;28;20431;-73
2020/12/28 08:25:28;;;;;;;12.05;8.45;;;;;;;1.55;100.00;97741.50;5049068;28;20493;-73
2020/12/28 08:27:56;;;;;;;12.80;9.30;;;;;;;1.58;100.00;97741.19;5049323;28;20436;-74
2020/12/28 08:30:25;;;;;;;12.77;9.57;;;;;;;1.60;100.00;97749.06;5049845;28;20427;-77
2020/12/28 08:32:51;;;;;;;14.23;9.73;;;;;;;1.63;100.00;97755.00;5049535;28;20509;-72
2020/12/28 08:35:17;;;;;;;13.75;9.35;;;;;;;1.68;100.00;97757.22;5048359;28;20421;-73
2020/12/28 08:37:47;;;;;;;16.63;10.13;;;;;;;1.72;100.00;97749.78;5048065;28;20431;-71
2020/12/28 08:40:14;;;;;;;16.27;10.27;;;;;;;1.76;100.00;97760.03;5048250;28;20517;-72
2020/12/28 08:42:40;;;;;;;12.73;8.68;;;;;;;1.81;100.00;97754.28;5049080;28;20963;-72
2020/12/28 08:45:06;;;;;;;15.15;9.82;;;;;;;1.84;100.00;97744.16;5049194;28;20421;-72
2020/12/28 08:47:32;;;;;;;13.70;9.63;;;;;;;1.88;100.00;97747.34;5049436;28;20425;-72
2020/12/28 08:49:58;;;;;;;12.77;9.20;;;;;;;1.91;100.00;97740.88;5049177;28;20421;-72
2020/12/28 08:52:25;;;;;;;12.98;9.13;;;;;;;1.93;100.00;97733.56;5048496;28;20425;-73
2020/12/28 08:54:53;;;;;;;13.02;8.85;;;;;;;1.95;100.00;97731.59;5049084;28;20405;-72
2020/12/28 08:57:20;;;;;;;12.43;8.90;;;;;;;1.96;100.00;97733.28;5048425;28;20516;-72
2020/12/28 08:59:46;;;;;;;14.63;9.07;;;;;;;1.99;100.00;97738.34;5048997;28;20524;-72
2020/12/28 09:02:17;;;;;;;12.88;8.73;;;;;;;2.03;100.00;97723.69;5048768;28;20424;-72
2020/12/28 09:04:43;;;;;;;13.55;9.27;;;;;;;2.09;100.00;97725.78;5049223;28;20503;-74
2020/12/28 09:07:09;;;;;;;13.48;9.20;;;;;;;2.15;100.00;97717.19;5047815;28;20500;-74
2020/12/28 09:09:35;;;;;;;10.57;7.75;;;;;;;2.14;100.00;97720.84;5049240;28;20897;-74
2020/12/28 09:12:01;;;;;;;12.77;8.93;;;;;;;2.15;100.00;97714.53;5031964;28;20477;-73
2020/12/28 09:14:27;;;;;;;14.10;9.20;;;;;;;2.13;100.00;97713.81;5029425;28;20414;-73
2020/12/28 09:16:53;;;;;;;13.88;9.30;;;;;;;2.15;100.00;97713.66;5046689;28;20431;-73
2020/12/28 09:19:20;;;;;;;13.80;10.00;;;;;;;2.18;100.00;97711.53;5050844;28;20429;-73
2020/12/28 09:21:46;;;;;;;12.97;8.77;;;;;;;2.21;100.00;97707.72;5052842;28;20567;-71
2020/12/28 09:24:12;;;;;;;11.68;8.18;;;;;;;2.25;100.00;97705.63;5053571;28;20417;-74
2020/12/28 09:26:38;;;;;;;10.32;7.72;;;;;;;2.29;100.00;97707.84;5052200;28;20432;-74
2020/12/28 09:29:03;;;;;;;11.73;7.87;;;;;;;2.27;100.00;97704.47;5049526;28;20425;-74
2020/12/28 09:31:29;;;;;;;10.10;7.72;;;;;;;2.23;100.00;97705.78;5052233;28;20425;-73
2020/12/28 09:33:55;;;;;;;9.77;7.63;;;;;;;2.24;100.00;97698.56;5046779;28;20792;-73
2020/12/28 09:36:22;;;;;;;10.82;7.57;;;;;;;2.23;100.00;97697.75;5050265;28;20424;-73
2020/12/28 09:38:48;;;;;;;9.82;7.35;;;;;;;2.27;100.00;97696.47;5051723;28;20459;-73
2020/12/28 09:41:14;;;;;;;10.43;7.85;;;;;;;2.32;100.00;97704.88;5043384;28;20425;-73
2020/12/28 09:43:40;;;;;;;11.00;8.07;;;;;;;2.35;100.00;97701.06;5052494;28;20520;-72
2020/12/28 09:46:06;;;;;;;11.65;8.23;;;;;;;2.34;100.00;97702.06;5051630;28;20447;-74
2020/12/28 09:48:32;;;;;;;10.47;7.93;;;;;;;2.39;100.00;97713.16;5038783;28;20538;-74
2020/12/28 09:50:58;;;;;;;10.48;7.90;;;;;;;2.41;100.00;97705.00;5050684;28;20872;-74
2020/12/28 09:53:25;;;;;;;10.57;7.63;;;;;;;2.43;100.00;97711.91;5051990;28;20417;-74
2020/12/28 09:55:51;;;;;;;10.10;7.47;;;;;;;2.50;100.00;97713.00;5051844;28;20519;-73
2020/12/28 09:58:17;;;;;;;10.63;7.45;;;;;;;2.50;100.00;97718.34;5051543;28;20471;-73
2020/12/28 10:00:43;;;;;;;11.05;7.43;;;;;;;2.55;100.00;97717.06;5052251;28;20489;-73
2020/12/28 10:03:09;;;;;;;9.17;7.40;;;;;;;2.57;100.00;97712.41;5052344;28;20601;-73
2020/12/28 10:05:35;;;;;;;10.23;7.38;;;;;;;2.54;100.00;97710.00;5051765;28;20417;-73
2020/12/28 10:08:01;;;;;;;11.00;7.43;;;;;;;2.51;100.00;97703.97;5051579;28;20497;-73
2020/12/28 10:10:28;;;;;;;9.95;7.32;;;;;;;2.51;100.00;97700.44;5051785;28;20769;-73
2020/12/28 10:12:54;;;;;;;12.35;8.55;;;;;;;2.47;100.00;97697.22;5051879;28;20421;-73
2020/12/28 10:15:20;;;;;;;12.30;9.50;;;;;;;2.52;100.00;97696.78;5051727;28;20483;-73
2020/12/28 10:18:10;;;;;;;11.67;7.63;;;;;;;2.60;100.00;97704.06;5051744;28;20440;-73
2020/12/28 10:20:36;;;;;;;11.20;7.70;;;;;;;2.61;100.00;97705.75;5051617;28;20909;-72
2020/12/28 10:23:02;;;;;;;10.73;7.65;;;;;;;2.56;100.00;97697.31;5051701;28;20433;-72
2020/12/28 10:25:29;;;;;;;10.55;7.93;;;;;;;2.60;100.00;97699.53;5051849;28;20433;-73
2020/12/28 10:27:55;;;;;;;61.90;36.92;;;;;;;2.64;100.00;97702.78;5051149;28;20962;-74
2020/12/28 10:30:21;;;;;;;15.35;9.88;;;;;;;2.67;100.00;97699.78;5050494;28;20426;-74
2020/12/28 10:32:47;;;;;;;15.85;10.45;;;;;;;2.63;100.00;97698.41;5051322;28;20425;-73
2020/12/28 10:35:12;;;;;;;10.90;7.18;;;;;;;2.60;100.00;97694.19;5051473;28;20467;-73
2020/12/28 10:37:38;;;;;;;9.47;6.90;;;;;;;2.57;100.00;97696.34;5050992;28;20926;-73
2020/12/28 10:40:06;;;;;;;21.60;14.68;;;;;;;2.64;100.00;97687.53;5051043;28;20421;-73
2020/12/28 10:42:33;;;;;;;17.08;12.85;;;;;;;2.70;100.00;97688.81;5032913;28;20525;-73
2020/12/28 10:44:58;;;;;;;10.82;7.88;;;;;;;2.76;100.00;97690.03;5032548;28;20434;-73
2020/12/28 10:47:25;;;;;;;10.07;8.02;;;;;;;2.81;100.00;97685.06;5042648;28;20438;-73
2020/12/28 10:49:50;;;;;;;12.73;7.73;;;;;;;2.95;100.00;97683.72;5051351;28;20439;-73
2020/12/28 10:52:16;;;;;;;14.48;11.52;;;;;;;3.26;100.00;97684.22;5051963;28;20482;-72
2020/12/28 10:54:42;;;;;;;10.27;7.07;;;;;;;3.45;100.00;97667.13;5052280;28;20795;-73
2020/12/28 10:57:08;;;;;;;9.70;6.85;;;;;;;3.44;100.00;97669.97;5050600;28;20489;-73
2020/12/28 10:59:35;;;;;;;7.97;5.90;;;;;;;3.49;100.00;97668.50;5050925;28;20437;-72
2020/12/28 11:02:01;;;;;;;9.27;6.57;;;;;;;3.51;100.00;97671.88;5051122;28;20562;-73
2020/12/28 11:04:27;;;;;;;8.93;6.72;;;;;;;3.54;100.00;97677.91;5050070;28;20425;-73
2020/12/28 11:06:52;;;;;;;9.20;6.30;;;;;;;3.57;100.00;97688.34;5050710;28;20801;-73
2020/12/28 11:09:18;;;;;;;8.73;6.30;;;;;;;3.62;100.00;97678.84;5050787;28;20432;-73
2020/12/28 11:11:47;;;;;;;9.97;7.10;;;;;;;3.65;100.00;97670.47;5051013;28;20428;-72
2020/12/28 11:14:13;;;;;;;12.27;6.50;;;;;;;3.63;100.00;97674.31;5050818;28;20501;-72
2020/12/28 11:16:40;;;;;;;15.35;8.18;;;;;;;3.75;100.00;97670.38;5050322;28;20455;-72
2020/12/28 11:19:06;;;;;;;39.72;21.38;;;;;;;3.90;100.00;97659.94;5050656;28;20491;-73
2020/12/28 11:21:32;;;;;;;8.73;6.40;;;;;;;3.95;100.00;97654.09;5050633;28;20874;-73
2020/12/28 11:23:58;;;;;;;19.27;10.83;;;;;;;4.07;100.00;97649.31;5048182;28;20437;-73
2020/12/28 11:26:25;;;;;;;29.17;16.85;;;;;;;4.17;100.00;97655.41;5044914;28;20425;-73
2020/12/28 11:28:51;;;;;;;10.75;6.15;;;;;;;4.11;100.00;97656.88;5047254;28;20513;-73
2020/12/28 11:31:18;;;;;;;8.18;6.00;;;;;;;4.09;100.00;97653.50;5048834;28;20429;-73
2020/12/28 11:33:45;;;;;;;11.88;7.20;;;;;;;4.15;100.00;97657.41;5030649;28;20453;-73
2020/12/28 11:36:12;;;;;;;9.57;6.78;;;;;;;4.12;100.00;97660.41;5047034;28;20519;-74
2020/12/28 11:38:39;;;;;;;8.70;6.75;;;;;;;4.17;100.00;97666.16;5050236;28;20517;-74